Latest Coastal Weather Observations for Walpole North

IDW60701

Issued at 8:03 am WST Friday 24 March 2017 (issued every 10 minutes, with the page automatically refreshed every 10 minutes)

About coastal observations | Map of coastal stations | Coastal observations for WA | Marine services | Other Formats
Station Details ID: 009998 Name: NORTH WALPOLE Lat: -34.95 Lon: 116.72 Height: 73.0 m
Data from the previous 72 hours. | See also: Recent months at Walpole North
Date/Time
WST
Temp
°C
Wind Pressure Rain since
9am
mm
Weather Cloud Vis
km
Sea
Height
m
Swell
Dir  Spd
kts
Gust
kts
hPa Trend Height
m
Period
s
Dir
24/08:00am 16.8 SSW 5 7 1016.1 - 3.2 - - - - - - -
24/07:30am 16.2 SW 4 7 1015.8 - 3.0 - - - - - - -
24/07:00am 15.9 SW 3 5 1015.6 - 2.8 - - - - - - -
24/06:30am 15.7 SW 4 7 1015.3 - 2.6 - - - - - - -
24/06:00am 15.8 SW 4 6 1014.9 - 2.6 - - - - - - -
24/05:30am 15.9 WSW 5 7 1014.7 - 2.6 - - - - - - -
24/05:00am 15.9 SW 4 8 1014.4 - 2.6 - - - - - - -
24/04:30am 16.0 WSW 4 5 1014.5 - 2.4 - - - - - - -
24/04:00am 16.0 W 3 5 1014.3 - 2.2 - - - - - - -
24/03:30am 15.9 W 3 5 1014.2 - 1.8 - - - - - - -
24/03:00am 15.9 W 3 4 1014.1 - 1.8 - - - - - - -
24/02:30am 16.2 WSW 4 7 1014.1 - 1.8 - - - - - - -
24/02:00am 16.2 W 4 9 1014.0 - 1.8 - - - - - - -
24/01:30am 16.3 WSW 5 7 1013.9 - 1.8 - - - - - - -
24/01:00am 16.6 WSW 3 5 1013.8 - 1.8 - - - - - - -
24/12:30am 16.7 WSW 3 5 1013.7 - 1.8 - - - - - - -
24/12:00am 16.7 SW 5 7 1013.7 - 1.8 - - - - - - -
 
Date/Time
WST
Temp
°C
Wind Pressure Rain since
9am
mm
Weather Cloud Vis
km
Sea
Height
m
Swell
Dir  Spd
kts
Gust
kts
hPa Trend Height
m
Period
s
Dir
23/11:30pm 16.6 WSW 5 7 1013.6 - 1.8 - - - - - - -
23/11:00pm 16.8 WSW 4 5 1013.7 - 1.8 - - - - - - -
23/10:30pm 16.9 SW 4 6 1013.9 - 1.8 - - - - - - -
23/10:00pm 16.8 WSW 4 7 1014.1 - 1.6 - - - - - - -
23/09:30pm 16.9 WSW 1 4 1014.2 - 1.6 - - - - - - -
23/09:00pm 16.8 WSW 4 6 1014.1 - 1.4 - - - - - - -
23/08:30pm 17.0 SW 5 10 1013.9 - 1.4 - - - - - - -
23/08:00pm 17.1 SSW 5 7 1013.4 - 1.4 - - - - - - -
23/07:30pm 17.3 SSW 7 13 1012.9 - 1.4 - - - - - - -
23/07:00pm 17.4 SW 7 11 1012.4 - 1.4 - - - - - - -
23/06:30pm 17.7 SSW 8 15 1012.1 - 1.4 - - - - - - -
23/06:00pm 18.2 SW 5 7 1011.8 - 0.8 Recent precip. - - - - - -
23/05:30pm 19.0 WSW 6 11 1011.5 - 0.4 - - - - - - -
23/05:00pm 19.3 SW 6 10 1011.3 - 0.2 - - - - - - -
23/04:30pm 20.0 SW 6 11 1010.9 - 0.2 - - - - - - -
23/04:00pm 19.7 SW 7 11 1010.7 - 0.2 - - - - - - -
23/03:30pm 20.3 SW 9 13 1010.4 - 0.2 - - - - - - -
23/03:00pm 20.0 SW 9 14 1010.1 - 0.2 - - - - - - -
23/02:30pm 21.0 WSW 9 12 1009.9 - 0.2 - - - - - - -
23/02:00pm 21.5 SW 7 11 1009.8 - 0.2 - - - - - - -
23/01:30pm 20.1 SW 7 15 1009.8 - 0.2 - - - - - - -
23/01:00pm 20.8 SW 9 12 1009.7 - 0.2 - - - - - - -
23/12:30pm 19.4 SW 6 9 1009.6 - 0.2 - - - - - - -
23/12:00pm 20.7 WSW 10 15 1009.4 - 0.0 - - - - - - -
23/11:30am 18.9 SW 8 13 1009.5 - 0.0 - - - - - - -
23/11:00am 18.7 W 8 13 1009.4 - 0.0 - - - - - - -
23/10:30am 18.8 W 8 12 1009.4 - 0.0 - - - - - - -
23/10:00am 18.1 W 8 16 1009.5 - 0.0 - - - - - - -
23/09:30am 17.7 W 10 18 1009.3 - 0.0 - - - - - - -
23/09:00am 17.9 W 8 14 1008.9 - 3.2 Rain - - - - - -
23/08:30am 17.8 W 7 11 1008.8 - 3.0 - - - - - - -
23/08:00am 17.5 W 8 13 1008.7 - 3.0 - - - - - - -
23/07:30am 17.4 W 7 11 1008.5 - 3.0 - - - - - - -
23/07:00am 17.1 WNW 6 10 1008.5 - 3.0 - - - - - - -
23/06:30am 17.0 WNW 7 11 1008.2 - 3.0 - - - - - - -
23/06:00am 16.9 WNW 7 11 1007.9 - 3.0 Recent precip. - - - - - -
23/05:30am 16.7 WNW 8 11 1007.5 - 3.0 - - - - - - -
23/05:00am 16.5 NW 9 11 1007.2 - 2.8 - - - - - - -
23/04:30am 16.4 WNW 7 11 1007.1 - 2.8 - - - - - - -
23/04:00am 16.4 NW 10 15 1006.8 - 2.8 - - - - - - -
23/03:30am 16.5 NW 11 15 1006.6 - 2.8 - - - - - - -
23/03:00am 16.4 WNW 9 13 1006.5 - 2.6 - - - - - - -
23/02:30am 16.5 NW 9 13 1006.4 - 2.6 - - - - - - -
23/02:00am 16.6 NW 10 15 1006.6 - 2.6 - - - - - - -
23/01:30am 16.9 NNW 9 13 1006.7 - 2.6 - - - - - - -
23/01:00am 16.8 NW 7 10 1006.8 - 2.6 - - - - - - -
23/12:30am 17.0 NNW 7 10 1006.7 - 2.6 - - - - - - -
23/12:00am 16.8 NNW 9 11 1006.9 - 2.6 - - - - - - -
 
Date/Time
WST
Temp
°C
Wind Pressure Rain since
9am
mm
Weather Cloud Vis
km
Sea
Height
m
Swell
Dir  Spd
kts
Gust
kts
hPa Trend Height
m
Period
s
Dir
22/11:30pm 16.7 NW 9 11 1007.1 - 2.6 - - - - - - -
22/11:00pm 16.9 NNW 7 10 1007.3 - 2.6 - - - - - - -
22/10:30pm 17.2 NNW 7 10 1007.2 - 2.6 - - - - - - -
22/10:00pm 17.2 NNW 4 6 1007.3 - 2.6 - - - - - - -
22/09:30pm 17.2 NNW 4 5 1007.4 - 2.6 - - - - - - -
22/09:00pm 17.3 NNW 6 7 1007.2 - 2.6 - - - - - - -
22/08:30pm 17.0 W 2 3 1006.9 - 2.6 - - - - - - -
22/08:00pm 17.1 W 3 3 1006.7 - 2.6 - - - - - - -
22/07:30pm 17.1 SW 4 5 1006.4 - 2.6 - - - - - - -
22/07:00pm 17.4 CALM 0 0 1006.3 - 2.6 - - - - - - -
22/06:30pm 18.1 SSW 2 4 1006.0 - 2.6 - - - - - - -
22/06:00pm 18.6 SSW 4 5 1005.7 - 2.6 - - - - - - -
22/05:30pm 19.3 N 3 4 1005.3 - 2.6 - - - - - - -
22/05:00pm 19.5 N 4 7 1005.0 - 2.6 - - - - - - -
22/04:30pm 19.1 N 5 8 1004.9 - 2.6 - - - - - - -
22/04:00pm 19.6 NNW 3 4 1004.6 - 2.6 - - - - - - -
22/03:30pm 20.8 NW 3 5 1004.3 - 2.4 - - - - - - -
22/03:00pm 21.2 WNW 4 6 1004.2 - 2.4 - - - - - - -
22/02:30pm 20.2 NW 4 6 1004.2 - 2.4 - - - - - - -
22/02:00pm 19.5 SW 1 4 1004.5 - 2.4 - - - - - - -
22/01:30pm 18.8 SSE 4 5 1004.6 - 2.4 - - - - - - -
22/01:00pm 18.3 E 4 6 1004.7 - 2.4 - - - - - - -
22/12:30pm 17.3 ENE 4 6 1004.8 - 2.4 - - - - - - -
22/12:00pm 17.2 NE 4 7 1004.9 - 2.2 Rain - - - - - -
22/11:30am 17.9 ENE 7 11 1005.1 - 0.4 - - - - - - -
22/11:00am 19.0 ENE 7 11 1005.3 - 0.0 - - - - - - -
22/10:30am 18.6 ENE 8 14 1005.7 - 0.0 - - - - - - -
22/10:00am 17.4 ENE 9 14 1005.9 - 0.0 - - - - - - -
22/09:30am 17.5 ENE 9 15 1006.0 - 0.0 - - - - - - -
22/09:00am 16.9 ENE 8 14 1006.4 - 15.4 - - - - - - -
22/08:30am 16.8 ENE 8 16 1006.4 - 15.4 - - - - - - -
22/08:00am 16.5 ENE 9 14 1006.5 - 15.4 - - - - - - -
22/07:30am 16.4 ENE 10 18 1006.3 - 15.4 - - - - - - -
22/07:00am 16.1 E 10 16 1006.5 - 15.4 - - - - - - -
22/06:30am 15.9 E 10 17 1006.4 - 15.4 - - - - - - -
22/06:00am 15.8 E 12 16 1006.4 - 15.4 - - - - - - -
22/05:30am 15.7 E 11 19 1006.8 - 15.4 - - - - - - -
22/05:00am 15.5 ESE 12 19 1007.1 - 15.4 - - - - - - -
22/04:30am 15.6 E 12 21 1007.4 - 15.4 - - - - - - -
22/04:00am 15.3 E 10 16 1007.9 - 15.2 - - - - - - -
22/03:30am 14.9 ESE 11 18 1008.2 - 14.4 - - - - - - -
22/03:00am 14.8 ESE 11 18 1009.0 - 14.0 Rain - - - - - -
22/02:30am 15.0 ESE 12 19 1009.6 - 12.8 - - - - - - -
22/02:00am 14.7 ESE 7 11 1010.0 - 12.2 - - - - - - -
22/01:30am 14.9 SE 6 9 1010.5 - 7.8 - - - - - - -
22/01:00am 15.0 NNW 4 9 1011.1 - 5.4 - - - - - - -
22/12:30am 15.0 E 9 14 1010.5 - 5.0 - - - - - - -
22/12:00am 15.0 ESE 10 17 1010.2 - 4.8 Recent precip. - - - - - -
 
Date/Time
WST
Temp
°C
Wind Pressure Rain since
9am
mm
Weather Cloud Vis
km
Sea
Height
m
Swell
Dir  Spd
kts
Gust
kts
hPa Trend Height
m
Period
s
Dir
21/11:30pm 14.9 E 13 20 1010.5 - 4.8 - - - - - - -
21/11:00pm 14.8 E 12 20 1010.8 - 3.8 - - - - - - -
21/10:34pm 14.9 E 15 28 1011.3 - 2.6 - - - - - - -
21/10:30pm 15.0 E 13 21 1011.6 - 2.6 - - - - - - -
21/10:15pm 15.0 E 15 25 1011.9 - 2.2 - - - - - - -
21/10:00pm 15.1 E 12 21 1012.1 - 2.0 - - - - - - -
21/09:30pm 15.5 E 10 16 1012.8 - 0.6 - - - - - - -
21/09:00pm 16.1 ESE 11 19 1012.8 - 0.0 - - - - - - -
21/08:30pm 16.1 ESE 11 19 1012.7 - 0.0 - - - - - - -
21/08:00pm 16.5 E 11 18 1012.6 - 0.0 - - - - - - -
21/07:30pm 16.7 E 13 21 1012.4 - 0.0 - - - - - - -
21/07:00pm 17.1 E 13 23 1012.1 - 0.0 - - - - - - -
21/06:30pm 17.5 E 13 24 1011.4 - 0.0 - - - - - - -
21/06:00pm 17.6 ESE 11 18 1011.4 - 0.0 - - - - - - -
21/05:30pm 18.0 ESE 12 19 1011.3 - 0.0 - - - - - - -
21/05:00pm 18.2 E 15 24 1011.4 - 0.0 - - - - - - -
21/04:30pm 18.5 E 13 21 1011.9 - 0.0 - - - - - - -
21/04:00pm 18.8 ESE 11 19 1012.1 - 0.0 - - - - - - -
21/03:30pm 18.8 ESE 13 18 1011.7 - 0.0 - - - - - - -
21/03:00pm 18.8 ESE 14 20 1011.3 - 0.0 - - - - - - -
21/02:30pm 20.1 E 13 21 1012.3 - 0.0 - - - - - - -
21/02:00pm 20.6 E 10 15 1012.6 - 0.0 - - - - - - -
21/01:30pm 21.1 E 11 17 1012.8 - 0.0 - - - - - - -
21/01:00pm 20.8 ESE 13 19 1013.3 - 0.0 - - - - - - -
21/12:30pm 20.2 E 10 18 1013.6 - 0.0 - - - - - - -
21/12:00pm 21.5 ENE 11 22 1013.7 - 0.0 - - - - - - -
21/11:30am 20.2 E 10 19 1014.0 - 0.0 - - - - - - -
21/11:00am 19.6 E 7 12 1015.2 - 0.0 - - - - - - -
21/10:30am 18.5 ENE 10 14 1015.6 - 0.0 - - - - - - -
21/10:00am 18.1 ENE 10 16 1016.1 - 0.0 - - - - - - -
21/09:30am 17.5 ENE 9 14 1015.8 - 0.0 - - - - - - -
21/09:00am 17.7 ENE 9 13 1016.1 - 0.0 - - - - - - -
21/08:30am 16.6 ENE 7 12 1016.3 - 0.0 - - - - - - -

Other Formats:

Comma delimited format used in spreadsheet applications
http://www.bom.gov.au/fwo/IDW60701/IDW60701.95647.axf

JavaScript Object Notation format (JSON) in row-major order
http://www.bom.gov.au/fwo/IDW60701/IDW60701.95647.json